Time;durP1;ratioP1;P1;durP2;ratioP2;P2;SDS_P1;SDS_P2;PMS_P1;PMS_P2;Temp;Humidity;BMP_temperature;BMP_pressure;BME280_temperature;BME280_humidity;BME280_pressure;Samples;Min_cycle;Max_cycle;Signal;HPM_P1;HPM_P2
2023/07/25 00:00:46;;;;;;;;;;;;;;;23.09;49.75;98932.44;110299;1268;21977;-81
2023/07/25 00:03:32;;;;;;;;;;;;;;;23.10;49.72;98936.46;110446;1260;21955;-80
2023/07/25 00:06:50;;;;;;;;;;;;;;;;;;;;;
2023/07/25 00:09:35;;;;;;;;;;;;;;;23.09;49.63;98942.60;111027;1254;23107;-81
2023/07/25 00:12:13;;;;;;;;;;;;;;;23.08;49.68;98942.82;110771;1259;21964;-80
2023/07/25 00:15:02;;;;;;;;;;;;;;;;;;;;;
2023/07/25 00:17:41;;;;;;;;;;;;;;;23.07;49.62;98936.27;110433;1263;23065;-80
2023/07/25 00:20:25;;;;;;;;;;;;;;;23.05;49.54;98944.09;110745;1263;21908;-82
2023/07/25 00:23:34;;;;;;;;;;;;;;;23.00;49.49;98945.41;110610;1261;21955;-81
2023/07/25 00:26:34;;;;;;;;;;;;;;;22.96;49.50;98941.64;110885;1262;21942;-81
2023/07/25 00:29:44;;;;;;;;;;;;;;;22.92;49.59;98944.41;110640;1262;22054;-80
2023/07/25 00:32:28;;;;;;;;;;;;;;;22.87;49.69;98943.54;110809;1259;21933;-80
2023/07/25 00:35:20;;;;;;;;;;;;;;;22.81;49.71;98946.84;111082;1259;21958;-79
2023/07/25 00:38:29;;;;;;;;;;;;;;;22.73;49.71;98939.58;110920;1259;21950;-80
2023/07/25 00:41:34;;;;;;;;;;;;;;;22.66;49.81;98945.55;111045;1259;21941;-80
2023/07/25 00:44:19;;;;;;;;;;;;;;;22.57;49.98;98953.76;110976;1259;21958;-80
2023/07/25 00:46:54;;;;;;;;;;;;;;;22.53;50.22;98952.66;110973;1259;21963;-80
2023/07/25 00:49:33;;;;;;;;;;;;;;;22.49;50.39;98950.74;111118;1259;22671;-80
2023/07/25 00:52:16;;;;;;;;;;;;;;;22.44;50.41;98955.73;110917;1260;21962;-80
2023/07/25 00:54:52;;;;;;;;;;;;;;;22.38;50.41;98955.84;111110;1259;23063;-79
2023/07/25 00:57:30;;;;;;;;;;;;;;;22.34;50.50;98956.70;110553;1262;22002;-81
2023/07/25 01:00:18;;;;;;;;;;;;;;;22.30;50.55;98957.48;110693;1262;23667;-80
2023/07/25 01:03:21;;;;;;;;;;;;;;;22.25;50.48;98963.09;110178;1268;21990;-81
2023/07/25 01:06:05;;;;;;;;;;;;;;;22.20;50.43;98964.39;109642;1272;21959;-79
2023/07/25 01:09:05;;;;;;;;;;;;;;;22.15;50.66;98969.63;109682;1271;21983;-80
2023/07/25 01:11:40;;;;;;;;;;;;;;;22.11;50.75;98969.27;109641;1271;21956;-80
2023/07/25 01:14:37;;;;;;;;;;;;;;;22.08;50.94;98974.38;109697;1271;21985;-80
2023/07/25 01:17:24;;;;;;;;;;;;;;;22.05;51.03;98977.48;110144;1270;21958;-79
2023/07/25 01:20:57;;;;;;;;;;;;;;;22.01;51.14;98975.02;110242;1266;21971;-78
2023/07/25 01:23:58;;;;;;;;;;;;;;;21.97;51.09;98974.58;110552;1259;21982;-80
2023/07/25 01:26:35;;;;;;;;;;;;;;;21.93;51.12;98976.30;111083;1259;22972;-80
2023/07/25 01:29:38;;;;;;;;;;;;;;;21.88;51.16;98976.27;110835;1259;22254;-82
2023/07/25 01:32:33;;;;;;;;;;;;;;;21.84;51.13;98980.64;110863;1259;22256;-80
2023/07/25 01:35:51;;;;;;;;;;;;;;;21.75;50.88;98983.88;111041;1254;23689;-80
2023/07/25 01:38:52;;;;;;;;;;;;;;;21.65;50.99;98984.52;111356;1255;21952;-81
2023/07/25 01:41:56;;;;;;;;;;;;;;;21.59;51.20;98992.08;111466;1254;21949;-81
2023/07/25 01:45:06;;;;;;;;;;;;;;;21.54;51.06;98990.46;111031;1259;22006;-78
2023/07/25 01:48:08;;;;;;;;;;;;;;;21.51;51.01;98989.10;110785;1260;21951;-80
2023/07/25 01:51:05;;;;;;;;;;;;;;;21.47;50.80;98983.41;110974;1260;21949;-79
2023/07/25 01:54:02;;;;;;;;;;;;;;;21.42;50.60;98986.95;110810;1260;22025;-79
2023/07/25 01:57:10;;;;;;;;;;;;;;;21.38;50.55;98999.38;110724;1260;21945;-78
2023/07/25 02:00:04;;;;;;;;;;;;;;;21.34;50.58;99006.23;110961;1260;22006;-79
2023/07/25 02:03:09;;;;;;;;;;;;;;;;;;;;;
2023/07/25 02:06:11;;;;;;;;;;;;;;;21.24;50.26;99008.61;111431;1254;21970;-80
2023/07/25 02:12:00;;;;;;;;;;;;;;;21.17;50.42;99012.52;110991;1260;24268;-80
2023/07/25 02:14:44;;;;;;;;;;;;;;;21.15;50.33;99010.48;110517;1264;23027;-79
2023/07/25 02:17:53;;;;;;;;;;;;;;;21.11;50.48;99011.99;110325;1268;22024;-80
2023/07/25 02:20:38;;;;;;;;;;;;;;;21.06;50.41;99011.02;109276;1274;21987;-79
2023/07/25 02:23:16;;;;;;;;;;;;;;;21.02;50.56;99009.30;109375;1275;23015;-80
2023/07/25 02:26:25;;;;;;;;;;;;;;;;;;;;;
2023/07/25 02:29:43;;;;;;;;;;;;;;;20.93;50.62;99011.23;109405;1274;22523;-80
2023/07/25 02:33:26;;;;;;;;;;;;;;;20.92;50.91;99018.16;109534;1274;22002;-80
2023/07/25 02:36:17;;;;;;;;;;;;;;;20.86;50.99;99025.80;109092;1275;21946;-79
2023/07/25 02:38:46;;;;;;;;;;;;;;;20.84;50.99;99029.38;109500;1269;24221;-79
2023/07/25 02:41:39;;;;;;;;;;;;;;;20.78;51.13;99031.73;109758;1269;21945;-81
2023/07/25 02:44:45;;;;;;;;;;;;;;;20.73;51.06;99029.20;110635;1263;22061;-79
2023/07/25 02:47:40;;;;;;;;;;;;;;;20.68;51.31;99031.10;110145;1265;21986;-79
2023/07/25 02:50:34;;;;;;;;;;;;;;;20.65;51.30;99034.77;110132;1267;23194;-81
2023/07/25 02:53:40;;;;;;;;;;;;;;;20.61;51.33;99033.59;109646;1272;21965;-79
2023/07/25 02:56:32;;;;;;;;;;;;;;;20.57;51.32;99037.19;109749;1271;21984;-81
2023/07/25 02:59:17;;;;;;;;;;;;;;;20.52;51.32;99042.41;109662;1271;21962;-80
2023/07/25 03:02:04;;;;;;;;;;;;;;;20.47;51.36;99047.34;109276;1275;21958;-79
2023/07/25 03:05:20;;;;;;;;;;;;;;;;;;;;;
2023/07/25 03:08:33;;;;;;;;;;;;;;;;;;;;;
2023/07/25 03:11:13;;;;;;;;;;;;;;;20.29;51.68;99046.83;109510;1270;21976;-81
2023/07/25 03:14:18;;;;;;;;;;;;;;;20.28;51.87;99052.79;109981;1269;23631;-80
2023/07/25 03:16:51;;;;;;;;;;;;;;;20.26;51.95;99054.20;109867;1265;21969;-81
2023/07/25 03:20:07;;;;;;;;;;;;;;;20.24;52.14;99056.88;110287;1264;21974;-78
2023/07/25 03:22:57;;;;;;;;;;;;;;;20.22;52.34;99061.14;109162;1277;21995;-79
2023/07/25 03:25:43;;;;;;;;;;;;;;;20.19;52.21;99062.43;108812;1278;21964;-79
2023/07/25 03:28:44;;;;;;;;;;;;;;;;;;;;;
2023/07/25 03:35:02;;;;;;;;;;;;;;;20.09;52.30;99056.27;108860;1280;22073;-78
2023/07/25 03:38:11;;;;;;;;;;;;;;;20.06;52.53;99054.20;108919;1278;21970;-77
2023/07/25 03:41:13;;;;;;;;;;;;;;;20.06;52.75;99055.25;108913;1279;22732;-78
2023/07/25 03:44:19;;;;;;;;;;;;;;;20.05;52.65;99060.48;109560;1272;22183;-79
2023/07/25 03:47:36;;;;;;;;;;;;;;;20.05;52.85;99057.66;109039;1277;22065;-79
2023/07/25 03:50:42;;;;;;;;;;;;;;;20.05;52.58;99055.73;108684;1280;21986;-79
2023/07/25 03:53:48;;;;;;;;;;;;;;;;;;;;;
2023/07/25 03:56:54;;;;;;;;;;;;;;;20.07;52.92;99074.70;108680;1286;21973;-79
2023/07/25 03:59:34;;;;;;;;;;;;;;;20.10;53.07;99077.18;108454;1286;22006;-79
2023/07/25 04:02:33;;;;;;;;;;;;;;;20.11;53.03;99080.41;108396;1286;21986;-79
2023/07/25 04:05:56;;;;;;;;;;;;;;;;;;;;;
2023/07/25 04:08:45;;;;;;;;;;;;;;;20.12;53.13;99085.45;109271;1276;22426;-81
2023/07/25 04:11:40;;;;;;;;;;;;;;;20.14;53.08;99089.45;109934;1261;22279;-78
2023/07/25 04:14:53;;;;;;;;;;;;;;;20.15;52.93;99088.33;110533;1264;22794;-80
2023/07/25 04:17:38;;;;;;;;;;;;;;;20.16;53.06;99092.83;109871;1268;22780;-79
2023/07/25 04:20:40;;;;;;;;;;;;;;;20.15;53.04;99089.55;110026;1259;23040;-79
2023/07/25 04:23:56;;;;;;;;;;;;;;;;;;;;;
2023/07/25 04:26:49;;;;;;;;;;;;;;;20.22;53.03;99093.98;109738;1272;21957;-78
2023/07/25 04:29:52;;;;;;;;;;;;;;;20.24;53.06;99091.27;109244;1275;24389;-79
2023/07/25 04:33:38;;;;;;;;;;;;;;;20.31;52.91;99097.55;108641;1282;21945;-78
2023/07/25 04:37:20;;;;;;;;;;;;;;;20.40;53.23;99099.23;108974;1279;21969;-78
2023/07/25 04:41:13;;;;;;;;;;;;;;;;;;;;;
2023/07/25 04:45:08;;;;;;;;;;;;;;;;;;;;;
2023/07/25 04:47:49;;;;;;;;;;;;;;;20.80;52.43;99094.27;108495;1283;21995;-79
2023/07/25 04:54:55;;;;;;;;;;;;;;;;;;;;;
2023/07/25 04:57:33;;;;;;;;;;;;;;;21.34;52.07;99096.43;108421;1286;22030;-79
2023/07/25 05:00:40;;;;;;;;;;;;;;;21.70;51.68;99102.14;108714;1283;21993;-79
2023/07/25 05:04:16;;;;;;;;;;;;;;;22.08;50.41;99112.49;108392;1287;23721;-80
2023/07/25 05:07:21;;;;;;;;;;;;;;;22.39;49.64;99115.56;108274;1289;22011;-79
2023/07/25 05:11:11;;;;;;;;;;;;;;;;;;;;;
2023/07/25 05:21:48;;;;;;;;;;;;;;;23.70;46.85;99109.81;107051;1299;23168;-79
2023/07/25 05:31:47;;;;;;;;;;;;;;;;;;;;;
2023/07/25 05:38:11;;;;;;;;;;;;;;;;;;;;;
2023/07/25 05:41:02;;;;;;;;;;;;;;;25.92;43.34;99103.34;108479;1287;22137;-81
2023/07/25 05:44:19;;;;;;;;;;;;;;;26.25;42.56;99103.08;108616;1286;23629;-81
2023/07/25 05:48:04;;;;;;;;;;;;;;;26.54;41.86;99105.21;108379;1292;21998;-80
2023/07/25 05:54:51;;;;;;;;;;;;;;;26.74;40.98;99109.54;107326;1301;23632;-81
2023/07/25 06:13:07;;;;;;;;;;;;;;;;;;;;;
2023/07/25 06:20:35;;;;;;;;;;;;;;;27.51;39.96;99140.32;110433;1267;23593;-81
2023/07/25 06:23:38;;;;;;;;;;;;;;;27.73;39.59;99151.57;110289;1267;22226;-81
2023/07/25 06:26:44;;;;;;;;;;;;;;;27.84;39.24;99158.51;110473;1267;21982;-81
2023/07/25 06:29:34;;;;;;;;;;;;;;;28.08;39.72;99147.49;110447;1267;21991;-81
2023/07/25 06:32:17;;;;;;;;;;;;;;;28.48;38.94;99138.25;109671;1272;21977;-81
2023/07/25 06:38:18;;;;;;;;;;;;;;;28.64;37.23;99129.36;109536;1274;21996;-82
2023/07/25 06:40:50;;;;;;;;;;;;;;;28.35;37.04;99131.81;109358;1274;22453;-81
2023/07/25 06:43:21;;;;;;;;;;;;;;;27.95;37.31;99136.05;109561;1274;22015;-80
2023/07/25 06:45:54;;;;;;;;;;;;;;;27.64;38.03;99142.15;109464;1274;23098;-82
2023/07/25 06:48:30;;;;;;;;;;;;;;;27.40;38.63;99150.52;109494;1263;21983;-80
2023/07/25 06:51:01;;;;;;;;;;;;;;;27.10;38.53;99153.16;111338;1252;21960;-82
2023/07/25 06:53:38;;;;;;;;;;;;;;;26.78;39.03;99155.20;111685;1251;21954;-80
2023/07/25 06:56:22;;;;;;;;;;;;;;;26.46;39.50;99160.91;111703;1251;21952;-81
2023/07/25 06:59:30;;;;;;;;;;;;;;;26.26;40.52;99167.27;112472;1244;23603;-80
2023/07/25 07:02:06;;;;;;;;;;;;;;;26.18;40.81;99170.63;112631;1244;21964;-81
2023/07/25 07:04:44;;;;;;;;;;;;;;;26.04;40.87;99162.86;111946;1249;21959;-79
2023/07/25 07:07:25;;;;;;;;;;;;;;;26.02;41.34;99156.00;111983;1246;22056;-81
2023/07/25 07:10:17;;;;;;;;;;;;;;;26.13;41.44;99162.47;112265;1247;21929;-81
2023/07/25 07:12:53;;;;;;;;;;;;;;;26.19;41.10;99162.79;112421;1246;21952;-81
2023/07/25 07:15:34;;;;;;;;;;;;;;;26.23;40.83;99166.33;112016;1244;23018;-81
2023/07/25 07:18:06;;;;;;;;;;;;;;;26.32;40.97;99172.11;112550;1244;21951;-80
2023/07/25 07:20:47;;;;;;;;;;;;;;;26.35;40.40;99174.40;112322;1244;23558;-80
2023/07/25 07:23:30;;;;;;;;;;;;;;;26.24;40.13;99178.85;112862;1238;21978;-83
2023/07/25 07:26:08;;;;;;;;;;;;;;;26.19;40.21;99184.96;113096;1238;21940;-82
2023/07/25 07:29:21;;;;;;;;;;;;;;;26.17;39.92;99188.57;113301;1238;21954;-81
2023/07/25 07:32:26;;;;;;;;;;;;;;;26.18;39.97;99186.30;113152;1238;23003;-82
2023/07/25 07:34:54;;;;;;;;;;;;;;;26.22;39.65;99179.24;113850;1232;22309;-81
2023/07/25 07:37:30;;;;;;;;;;;;;;;26.32;40.10;99176.73;113375;1238;23666;-83
2023/07/25 07:40:18;;;;;;;;;;;;;;;26.74;40.01;99174.96;113184;1238;22034;-83
2023/07/25 07:43:04;;;;;;;;;;;;;;;27.21;39.14;99181.67;113385;1238;21931;-82
2023/07/25 07:45:50;;;;;;;;;;;;;;;27.84;38.88;99183.21;113332;1238;21935;-82
2023/07/25 07:48:31;;;;;;;;;;;;;;;28.41;37.39;99181.94;113171;1238;22809;-82
2023/07/25 07:51:19;;;;;;;;;;;;;;;28.87;36.61;99174.16;113176;1238;22278;-82
2023/07/25 07:53:53;;;;;;;;;;;;;;;29.13;35.40;99161.88;113410;1238;22388;-82
2023/07/25 07:56:30;;;;;;;;;;;;;;;29.19;35.04;99164.61;113546;1232;23572;-82
2023/07/25 07:59:13;;;;;;;;;;;;;;;29.41;34.88;99160.04;113622;1232;21927;-83
2023/07/25 08:01:53;;;;;;;;;;;;;;;29.43;33.94;99148.99;113476;1237;22694;-82
2023/07/25 08:04:39;;;;;;;;;;;;;;;29.34;34.31;99135.61;113299;1237;21936;-83
2023/07/25 08:07:25;;;;;;;;;;;;;;;29.50;34.35;99130.37;113347;1236;23022;-83
2023/07/25 08:09:54;;;;;;;;;;;;;;;29.76;33.74;99118.23;113371;1237;21923;-82
2023/07/25 08:12:28;;;;;;;;;;;;;;;30.03;33.42;99114.71;113115;1237;22248;-83
2023/07/25 08:15:00;;;;;;;;;;;;;;;30.28;32.28;99114.51;113383;1237;21934;-83
2023/07/25 08:17:42;;;;;;;;;;;;;;;29.96;32.01;99113.80;112913;1243;22991;-82
2023/07/25 08:20:36;;;;;;;;;;;;;;;30.05;33.05;99115.21;113170;1238;21947;-81
2023/07/25 08:23:20;;;;;;;;;;;;;;;30.46;32.58;99122.40;113282;1238;23165;-82
2023/07/25 08:26:05;;;;;;;;;;;;;;;30.62;31.56;99138.13;113275;1238;22021;-83
2023/07/25 08:28:47;;;;;;;;;;;;;;;30.43;31.13;99148.64;113070;1238;21965;-82
2023/07/25 08:31:23;;;;;;;;;;;;;;;30.26;32.15;99157.37;113363;1238;21945;-83
2023/07/25 08:37:03;;;;;;;;;;;;;;;30.64;31.89;99153.19;113183;1237;21922;-81
2023/07/25 08:39:45;;;;;;;;;;;;;;;30.91;31.22;99156.70;113269;1237;23597;-84
2023/07/25 08:42:25;;;;;;;;;;;;;;;31.00;30.82;99159.20;112792;1243;21941;-85
2023/07/25 08:45:26;;;;;;;;;;;;;;;30.98;30.70;99157.80;112749;1243;23633;-83
2023/07/25 08:48:10;;;;;;;;;;;;;;;30.86;30.53;99163.80;112267;1247;22954;-82
2023/07/25 08:50:57;;;;;;;;;;;;;;;30.78;30.93;99171.48;112138;1247;22108;-81
2023/07/25 08:53:41;;;;;;;;;;;;;;;30.72;30.94;99168.34;112312;1247;21946;-86
2023/07/25 08:56:32;;;;;;;;;;;;;;;30.76;31.13;99163.84;112435;1244;21952;-82
2023/07/25 08:59:12;;;;;;;;;;;;;;;30.68;30.60;99160.63;112578;1244;23239;-82
2023/07/25 09:02:09;;;;;;;;;;;;;;;30.55;31.02;99166.76;113347;1238;22092;-85
2023/07/25 09:04:58;;;;;;;;;;;;;;;;;;;;;
2023/07/25 09:08:11;;;;;;;;;;;;;;;30.58;31.60;99162.88;113320;1238;21931;-83
2023/07/25 09:10:52;;;;;;;;;;;;;;;30.56;31.65;99161.02;112305;1245;21975;-83
2023/07/25 09:13:31;;;;;;;;;;;;;;;30.61;31.38;99151.44;112270;1245;23815;-83
2023/07/25 09:16:04;;;;;;;;;;;;;;;30.51;31.12;99150.79;112421;1243;21961;-82
2023/07/25 09:18:52;;;;;;;;;;;;;;;30.36;31.46;99151.62;112549;1245;21970;-83
2023/07/25 09:21:24;;;;;;;;;;;;;;;30.42;31.72;99149.68;112600;1245;21941;-84
2023/07/25 09:24:04;;;;;;;;;;;;;;;30.63;31.64;99148.60;112384;1245;21941;-83
2023/07/25 09:26:53;;;;;;;;;;;;;;;30.84;31.45;99152.09;112315;1245;21963;-85
2023/07/25 09:29:27;;;;;;;;;;;;;;;30.93;30.74;99148.35;113082;1239;21945;-84
2023/07/25 09:32:22;;;;;;;;;;;;;;;31.13;30.78;99146.40;113258;1238;23067;-85
2023/07/25 09:34:57;;;;;;;;;;;;;;;31.21;30.52;99140.31;112672;1243;21963;-83
2023/07/25 09:37:28;;;;;;;;;;;;;;;31.22;30.39;99141.64;112238;1249;21925;-83
2023/07/25 09:39:58;;;;;;;;;;;;;;;31.25;30.51;99146.48;111971;1249;21969;-82
2023/07/25 09:42:38;;;;;;;;;;;;;;;31.14;30.08;99150.81;112005;1249;21963;-83
2023/07/25 09:45:23;;;;;;;;;;;;;;;30.81;30.09;99155.13;111855;1252;21981;-85
2023/07/25 09:48:01;;;;;;;;;;;;;;;30.32;30.46;99150.58;111951;1252;23181;-85
2023/07/25 09:50:38;;;;;;;;;;;;;;;29.79;31.05;99146.14;111734;1253;22622;-83
2023/07/25 09:53:09;;;;;;;;;;;;;;;29.51;31.91;99146.90;111597;1255;21933;-83
2023/07/25 09:55:41;;;;;;;;;;;;;;;29.35;32.31;99140.78;112052;1248;22960;-81
2023/07/25 09:58:27;;;;;;;;;;;;;;;;;;;;;
2023/07/25 10:01:19;;;;;;;;;;;;;;;29.02;32.63;99147.67;111918;1251;22471;-84
2023/07/25 10:03:54;;;;;;;;;;;;;;;29.03;32.70;99146.20;112105;1248;23863;-83
2023/07/25 10:06:42;;;;;;;;;;;;;;;29.02;32.83;99144.33;112193;1248;22361;-84
2023/07/25 10:09:26;;;;;;;;;;;;;;;29.04;33.13;99142.44;112825;1244;23593;-83
2023/07/25 10:12:03;;;;;;;;;;;;;;;29.09;32.68;99145.41;112717;1243;21950;-83
2023/07/25 10:14:40;;;;;;;;;;;;;;;28.98;32.58;99144.91;112488;1243;23721;-83
2023/07/25 10:17:11;;;;;;;;;;;;;;;28.73;32.65;99146.23;112615;1243;24276;-84
2023/07/25 10:19:53;;;;;;;;;;;;;;;28.58;32.89;99150.38;113327;1237;21931;-84
2023/07/25 10:22:51;;;;;;;;;;;;;;;28.50;32.99;99157.95;113441;1237;23629;-84
2023/07/25 10:26:11;;;;;;;;;;;;;;;28.13;32.99;99160.55;112247;1248;21956;-84
2023/07/25 10:29:02;;;;;;;;;;;;;;;;;;;;;
2023/07/25 10:32:05;;;;;;;;;;;;;;;27.76;33.85;99161.52;112058;1248;21962;-84
2023/07/25 10:35:15;;;;;;;;;;;;;;;27.67;33.95;99154.75;111619;1255;22160;-87
2023/07/25 10:38:13;;;;;;;;;;;;;;;27.45;33.90;99153.43;111828;1255;22122;-85
2023/07/25 10:41:23;;;;;;;;;;;;;;;27.37;34.13;99151.61;111600;1255;21978;-85
2023/07/25 10:48:43;;;;;;;;;;;;;;;27.39;34.22;99145.93;112081;1251;21948;-86
2023/07/25 10:51:56;;;;;;;;;;;;;;;27.31;34.15;99141.09;112046;1244;21966;-82
2023/07/25 10:55:05;;;;;;;;;;;;;;;27.22;34.39;99140.64;113358;1239;21967;-85
2023/07/25 10:58:10;;;;;;;;;;;;;;;27.19;34.57;99140.57;112320;1249;22606;-87
2023/07/25 11:00:51;;;;;;;;;;;;;;;27.20;34.83;99140.78;112090;1249;21960;-86
2023/07/25 11:03:39;;;;;;;;;;;;;;;27.32;35.01;99140.20;112799;1243;21945;-82
2023/07/25 11:06:18;;;;;;;;;;;;;;;27.40;34.88;99139.55;111826;1250;21963;-82
2023/07/25 11:08:58;;;;;;;;;;;;;;;27.53;34.70;99148.60;112076;1250;21941;-81
2023/07/25 11:11:48;;;;;;;;;;;;;;;27.59;34.17;99143.08;111876;1250;21970;-81
2023/07/25 11:14:32;;;;;;;;;;;;;;;27.51;33.87;99137.51;112094;1250;22019;-80
2023/07/25 11:17:38;;;;;;;;;;;;;;;27.41;34.04;99133.88;112910;1244;21952;-82
2023/07/25 11:20:21;;;;;;;;;;;;;;;27.47;34.38;99125.61;112881;1243;22953;-81
2023/07/25 11:23:48;;;;;;;;;;;;;;;27.55;34.18;99125.00;112407;1244;23570;-82
2023/07/25 11:27:42;;;;;;;;;;;;;;;27.52;34.16;99118.75;112343;1248;21968;-79
2023/07/25 11:34:13;;;;;;;;;;;;;;;27.41;34.53;99125.25;111954;1252;22440;-81
2023/07/25 11:37:18;;;;;;;;;;;;;;;;;;;;;
2023/07/25 11:40:25;;;;;;;;;;;;;;;27.36;34.72;99130.41;111430;1255;23063;-79
2023/07/25 11:43:03;;;;;;;;;;;;;;;27.27;34.78;99124.59;111129;1255;22991;-81
2023/07/25 11:46:16;;;;;;;;;;;;;;;27.23;34.96;99125.61;111513;1255;21986;-80
2023/07/25 11:48:58;;;;;;;;;;;;;;;27.19;34.98;99128.62;111033;1260;22085;-80
2023/07/25 11:52:12;;;;;;;;;;;;;;;27.15;35.15;99128.05;110932;1261;22003;-80
2023/07/25 11:54:45;;;;;;;;;;;;;;;27.18;35.16;99122.52;110680;1261;23686;-79
2023/07/25 11:57:55;;;;;;;;;;;;;;;;;;;;;
2023/07/25 12:01:49;;;;;;;;;;;;;;;27.25;34.52;99106.14;111306;1255;21958;-80
2023/07/25 12:04:56;;;;;;;;;;;;;;;27.23;34.48;99100.42;111415;1255;21969;-80
2023/07/25 12:08:02;;;;;;;;;;;;;;;27.29;34.42;99095.63;111610;1250;23073;-79
2023/07/25 12:10:55;;;;;;;;;;;;;;;27.36;34.38;99090.42;112174;1245;22048;-79
2023/07/25 12:14:41;;;;;;;;;;;;;;;;;;;;;
2023/07/25 12:18:04;;;;;;;;;;;;;;;27.45;34.66;99079.64;112396;1245;23039;-80
2023/07/25 12:21:44;;;;;;;;;;;;;;;27.33;34.61;99086.49;111129;1257;22953;-79
2023/07/25 12:25:49;;;;;;;;;;;;;;;;;;;;;
2023/07/25 12:29:04;;;;;;;;;;;;;;;27.18;34.93;99088.64;111088;1258;22121;-79
2023/07/25 12:32:06;;;;;;;;;;;;;;;27.04;35.05;99091.05;110772;1258;23006;-78
2023/07/25 12:35:11;;;;;;;;;;;;;;;26.93;35.29;99085.14;110610;1262;22072;-78
2023/07/25 12:38:02;;;;;;;;;;;;;;;26.80;35.39;99083.60;110726;1257;21955;-82
2023/07/25 12:41:46;;;;;;;;;;;;;;;;;;;;;
2023/07/25 12:45:05;;;;;;;;;;;;;;;26.53;35.62;99095.89;111302;1257;21960;-79
2023/07/25 12:49:11;;;;;;;;;;;;;;;;;;;;;
2023/07/25 12:51:59;;;;;;;;;;;;;;;26.32;36.02;99094.41;111614;1253;23590;-79
2023/07/25 12:58:47;;;;;;;;;;;;;;;25.93;36.13;99092.89;111335;1256;22001;-79
2023/07/25 13:02:09;;;;;;;;;;;;;;;25.72;36.40;99087.27;110689;1261;21962;-79
2023/07/25 13:04:57;;;;;;;;;;;;;;;25.57;36.53;99088.35;110767;1255;22747;-79
2023/07/25 13:07:35;;;;;;;;;;;;;;;25.44;36.64;99089.57;111154;1256;21953;-79
2023/07/25 13:10:10;;;;;;;;;;;;;;;25.32;36.93;99087.43;111640;1251;22171;-78
2023/07/25 13:12:48;;;;;;;;;;;;;;;25.23;37.11;99085.81;111890;1245;21953;-78
2023/07/25 13:15:36;;;;;;;;;;;;;;;25.12;37.29;99084.05;112384;1245;23668;-78
2023/07/25 13:18:11;;;;;;;;;;;;;;;25.04;37.55;99080.23;112054;1245;21945;-77
2023/07/25 13:20:55;;;;;;;;;;;;;;;25.00;37.74;99076.95;112323;1245;21920;-80
2023/07/25 13:23:56;;;;;;;;;;;;;;;24.95;37.90;99078.58;113200;1239;23018;-79
2023/07/25 13:26:31;;;;;;;;;;;;;;;24.94;38.00;99073.79;112976;1239;22449;-78
2023/07/25 13:29:10;;;;;;;;;;;;;;;24.96;38.05;99070.36;113124;1239;22127;-79
2023/07/25 13:31:45;;;;;;;;;;;;;;;24.96;38.08;99065.15;112866;1233;22953;-80
2023/07/25 13:34:22;;;;;;;;;;;;;;;24.94;38.08;99059.71;113500;1233;21928;-81
2023/07/25 13:36:53;;;;;;;;;;;;;;;24.93;38.11;99049.09;113449;1232;21919;-79
2023/07/25 13:39:29;;;;;;;;;;;;;;;24.91;38.21;99042.25;113737;1232;21974;-82
2023/07/25 13:42:05;;;;;;;;;;;;;;;24.88;38.25;99041.21;113675;1232;21935;-78
2023/07/25 13:44:56;;;;;;;;;;;;;;;24.87;38.44;99036.32;113746;1233;24355;-79
2023/07/25 13:47:38;;;;;;;;;;;;;;;24.86;38.27;99038.64;113741;1233;21951;-76
2023/07/25 13:50:26;;;;;;;;;;;;;;;24.77;38.06;99044.00;113547;1233;23594;-80
2023/07/25 13:53:29;;;;;;;;;;;;;;;24.62;38.22;99040.48;113582;1233;22938;-79
2023/07/25 13:56:06;;;;;;;;;;;;;;;24.53;38.44;99041.58;113372;1237;21926;-79
2023/07/25 13:58:49;;;;;;;;;;;;;;;;;;;;;
2023/07/25 14:01:42;;;;;;;;;;;;;;;24.53;38.93;99050.23;113470;1237;21942;-79
2023/07/25 14:04:39;;;;;;;;;;;;;;;24.57;38.92;99053.18;112681;1242;22416;-78
2023/07/25 14:07:46;;;;;;;;;;;;;;;;;;;;;
2023/07/25 14:11:09;;;;;;;;;;;;;;;;;;;;;
2023/07/25 14:14:15;;;;;;;;;;;;;;;24.62;38.77;99060.96;111510;1250;21938;-77
2023/07/25 14:17:57;;;;;;;;;;;;;;;24.63;38.81;99070.06;111719;1250;21925;-78
2023/07/25 14:21:07;;;;;;;;;;;;;;;24.64;38.51;99074.39;111655;1250;22038;-79
2023/07/25 14:24:14;;;;;;;;;;;;;;;24.61;38.39;99073.39;112365;1244;21946;-81
2023/07/25 14:26:48;;;;;;;;;;;;;;;24.57;38.37;99068.35;112643;1244;23053;-80
2023/07/25 14:29:20;;;;;;;;;;;;;;;24.54;38.44;99070.80;112838;1239;23697;-79
2023/07/25 14:32:04;;;;;;;;;;;;;;;24.48;38.39;99072.88;113464;1232;22822;-80
2023/07/25 14:34:39;;;;;;;;;;;;;;;24.47;38.59;99074.96;113579;1232;21914;-80
2023/07/25 14:37:11;;;;;;;;;;;;;;;24.50;38.49;99082.40;113347;1237;22341;-80
2023/07/25 14:39:58;;;;;;;;;;;;;;;24.49;38.48;99088.75;113371;1237;21943;-79
2023/07/25 14:42:32;;;;;;;;;;;;;;;24.51;38.50;99092.25;112667;1243;22040;-81
2023/07/25 14:45:02;;;;;;;;;;;;;;;24.51;38.45;99093.48;112589;1243;21945;-80
2023/07/25 14:47:35;;;;;;;;;;;;;;;24.50;38.37;99090.64;112845;1243;21953;-80
2023/07/25 14:50:06;;;;;;;;;;;;;;;24.48;38.38;99089.23;112462;1246;22429;-81
2023/07/25 14:52:34;;;;;;;;;;;;;;;24.46;38.29;99090.20;112162;1246;21950;-79
2023/07/25 14:55:06;;;;;;;;;;;;;;;24.42;38.22;99091.57;112200;1244;22323;-81
2023/07/25 14:57:35;;;;;;;;;;;;;;;24.40;38.36;99093.71;112343;1244;22702;-79
2023/07/25 15:00:05;;;;;;;;;;;;;;;24.34;38.30;99093.48;112587;1244;21950;-79
2023/07/25 15:02:36;;;;;;;;;;;;;;;24.27;38.42;99088.67;112516;1243;21945;-80
2023/07/25 15:05:05;;;;;;;;;;;;;;;24.21;38.64;99088.23;112562;1244;21987;-79
2023/07/25 15:07:37;;;;;;;;;;;;;;;24.20;38.73;99084.69;113156;1233;21924;-80
2023/07/25 15:10:06;;;;;;;;;;;;;;;24.16;38.64;99077.98;113745;1232;21936;-81
2023/07/25 15:12:36;;;;;;;;;;;;;;;24.12;38.74;99073.23;114043;1232;21953;-81
2023/07/25 15:15:09;;;;;;;;;;;;;;;24.11;38.77;99069.46;113816;1232;24275;-79
2023/07/25 15:18:02;;;;;;;;;;;;;;;24.06;38.64;99066.59;113905;1233;21946;-80
2023/07/25 15:20:40;;;;;;;;;;;;;;;24.00;38.77;99065.96;113847;1233;21951;-79
2023/07/25 15:23:11;;;;;;;;;;;;;;;23.98;38.77;99065.64;113766;1233;21937;-82
2023/07/25 15:25:43;;;;;;;;;;;;;;;23.98;38.92;99065.48;113579;1238;21890;-80
2023/07/25 15:28:12;;;;;;;;;;;;;;;23.99;38.90;99064.67;113480;1238;21929;-81
2023/07/25 15:30:46;;;;;;;;;;;;;;;23.98;38.84;99059.64;113036;1237;22112;-80
2023/07/25 15:33:18;;;;;;;;;;;;;;;23.99;38.93;99058.66;113038;1241;24374;-81
2023/07/25 15:35:57;;;;;;;;;;;;;;;24.01;38.93;99051.52;112975;1240;21947;-82
2023/07/25 15:38:35;;;;;;;;;;;;;;;24.02;38.97;99053.84;113033;1240;23557;-82
2023/07/25 15:41:08;;;;;;;;;;;;;;;24.05;38.89;99051.59;112978;1240;21920;-81
2023/07/25 15:43:49;;;;;;;;;;;;;;;24.06;38.84;99052.13;112906;1237;21980;-79
2023/07/25 15:46:23;;;;;;;;;;;;;;;24.08;38.77;99050.25;113376;1237;21939;-82
2023/07/25 15:49:00;;;;;;;;;;;;;;;24.10;38.58;99044.61;112636;1243;23729;-80
2023/07/25 15:51:28;;;;;;;;;;;;;;;24.10;38.71;99039.24;113055;1239;23583;-81
2023/07/25 15:54:06;;;;;;;;;;;;;;;24.12;38.69;99040.91;113106;1239;22469;-81
2023/07/25 15:56:48;;;;;;;;;;;;;;;24.15;38.54;99042.34;113044;1239;24357;-80
2023/07/25 15:59:21;;;;;;;;;;;;;;;24.13;38.47;99044.34;113327;1239;23010;-79
2023/07/25 16:01:52;;;;;;;;;;;;;;;24.11;38.40;99047.95;113058;1239;21932;-81
2023/07/25 16:04:34;;;;;;;;;;;;;;;24.09;38.54;99050.61;112545;1244;23081;-81
2023/07/25 16:07:09;;;;;;;;;;;;;;;24.09;38.66;99050.58;112887;1237;24270;-80
2023/07/25 16:09:44;;;;;;;;;;;;;;;24.12;38.73;99050.48;113425;1237;21931;-80
2023/07/25 16:12:19;;;;;;;;;;;;;;;24.18;38.85;99045.29;112761;1242;21961;-81
2023/07/25 16:14:53;;;;;;;;;;;;;;;24.24;38.78;99042.92;112498;1245;22705;-80
2023/07/25 16:17:27;;;;;;;;;;;;;;;24.27;38.60;99044.70;112122;1245;21971;-82
2023/07/25 16:20:11;;;;;;;;;;;;;;;24.28;38.55;99039.80;112419;1245;22159;-79
2023/07/25 16:22:46;;;;;;;;;;;;;;;24.31;38.61;99038.63;112502;1242;23592;-80
2023/07/25 16:25:20;;;;;;;;;;;;;;;24.31;38.43;99034.11;112723;1242;21961;-81
2023/07/25 16:27:55;;;;;;;;;;;;;;;24.32;38.67;99036.64;112982;1242;21966;-81
2023/07/25 16:30:32;;;;;;;;;;;;;;;24.37;38.73;99030.80;113250;1236;23811;-81